Time;durP1;ratioP1;P1;durP2;ratioP2;P2;SDS_P1;SDS_P2;PMS_P1;PMS_P2;Temp;Humidity;BMP_temperature;BMP_pressure;BME280_temperature;BME280_humidity;BME280_pressure;Samples;Min_cycle;Max_cycle;Signal;HPM_P1;HPM_P2
2023/10/07 00:01:50;;;;;;;;;;;;;;;18.70;67.04;100392.78;5072434;28;19913;-77
2023/10/07 00:04:15;;;;;;;;;;;;;;;18.69;66.24;100409.88;5072122;28;20408;-76
2023/10/07 00:06:41;;;;;;;;;;;;;;;18.63;66.29;100402.69;5072235;28;19917;-77
2023/10/07 00:09:10;;;;;;;;;;;;;;;18.55;67.45;100408.19;5071030;28;19999;-76
2023/10/07 00:11:36;;;;;;;;;;;;;;;18.45;66.06;100408.63;5072193;28;19912;-77
2023/10/07 00:14:02;;;;;;;;;;;;;;;18.38;66.00;100411.31;5071006;28;19969;-77
2023/10/07 00:16:28;;;;;;;;;;;;;;;18.34;66.61;100402.06;5072216;28;19916;-77
2023/10/07 00:18:54;;;;;;;;;;;;;;;18.36;66.16;100400.00;5071282;28;20485;-77
2023/10/07 00:21:27;;;;;;;;;;;;;;;18.34;66.46;100410.06;5072411;28;19913;-76
2023/10/07 00:23:53;;;;;;;;;;;;;;;18.31;66.84;100399.78;5072131;28;19912;-77
2023/10/07 00:26:19;;;;;;;;;;;;;;;18.29;65.78;100407.19;5072012;28;19916;-77
2023/10/07 00:28:54;;;;;;;;;;;;;;;18.28;66.50;100405.56;5071830;28;19916;-77
2023/10/07 00:31:23;;;;;;;;;;;;;;;18.29;65.75;100403.69;5071882;28;20458;-76
2023/10/07 00:34:05;;;;;;;;;;;;;;;18.25;66.39;100402.47;5072006;28;19913;-76
2023/10/07 00:38:59;;;;;;;;;;;;;;;18.18;67.27;100401.66;5072374;28;19970;-77
2023/10/07 00:41:26;;;;;;;;;;;;;;;18.13;66.50;100407.63;5071942;28;19913;-77
2023/10/07 00:43:59;;;;;;;;;;;;;;;18.12;67.24;100405.97;5072010;28;20384;-78
2023/10/07 00:46:28;;;;;;;;;;;;;;;18.11;66.45;100399.00;5071743;28;19924;-77
2023/10/07 00:48:57;;;;;;;;;;;;;;;18.12;66.52;100405.97;5072027;28;19924;-77
2023/10/07 00:51:33;;;;;;;;;;;;;;;18.13;66.65;100407.63;5071703;28;19913;-77
2023/10/07 00:54:17;;;;;;;;;;;;;;;18.10;66.44;100410.72;5071778;28;19913;-76
2023/10/07 00:56:44;;;;;;;;;;;;;;;18.08;65.66;100416.25;5072002;28;19951;-77
2023/10/07 00:59:10;;;;;;;;;;;;;;;18.07;66.05;100411.13;5071819;28;19912;-77
2023/10/07 01:01:36;;;;;;;;;;;;;;;18.03;65.56;100407.22;5072237;28;19920;-77
2023/10/07 01:04:04;;;;;;;;;;;;;;;18.05;66.52;100410.50;5071884;28;19920;-77
2023/10/07 01:06:31;;;;;;;;;;;;;;;18.00;65.43;100403.09;5071863;28;19917;-77
2023/10/07 01:09:08;;;;;;;;;;;;;;;17.96;66.25;100396.53;5071659;28;19959;-77
2023/10/07 01:11:37;;;;;;;;;;;;;;;17.95;66.28;100399.41;5071692;28;19913;-76
2023/10/07 01:14:05;;;;;;;;;;;;;;;17.92;65.84;100400.63;5071572;28;20059;-76
2023/10/07 01:19:05;;;;;;;;;;;;;;;17.81;66.31;100395.88;5071570;28;20462;-76
2023/10/07 01:21:33;;;;;;;;;;;;;;;17.81;66.57;100397.72;5071623;28;19916;-77
2023/10/07 01:23:59;;;;;;;;;;;;;;;17.78;66.39;100393.59;5070126;28;20300;-77
2023/10/07 01:26:30;;;;;;;;;;;;;;;17.76;66.33;100406.34;5071297;28;19923;-76
2023/10/07 01:29:11;;;;;;;;;;;;;;;17.70;65.66;100404.47;5071208;28;19912;-77
2023/10/07 01:31:40;;;;;;;;;;;;;;;17.65;66.31;100405.06;5071226;28;19912;-77
2023/10/07 01:34:08;;;;;;;;;;;;;;;17.64;65.98;100406.09;5071581;28;19970;-77
2023/10/07 01:36:33;;;;;;;;;;;;;;;17.58;66.58;100406.91;5071392;28;19913;-76
2023/10/07 01:39:01;;;;;;;;;;;;;;;17.51;66.28;100399.91;5071551;28;20027;-77
2023/10/07 01:41:30;;;;;;;;;;;;;;;17.43;67.08;100399.06;5069832;28;19919;-76
2023/10/07 01:43:58;;;;;;;;;;;;;;;17.38;67.43;100400.69;5071271;28;19978;-76
2023/10/07 01:46:27;;;;;;;;;;;;;;;17.33;65.39;100401.28;5071238;28;20004;-77
2023/10/07 01:49:01;;;;;;;;;;;;;;;17.33;65.47;100395.97;5073492;28;19916;-76
2023/10/07 01:51:30;;;;;;;;;;;;;;;17.32;65.48;100398.81;5075079;28;19961;-78
2023/10/07 01:53:56;;;;;;;;;;;;;;;17.27;65.61;100398.59;5074736;28;19916;-77
2023/10/07 01:56:26;;;;;;;;;;;;;;;17.23;65.95;100395.53;5074628;28;19912;-77
2023/10/07 01:59:03;;;;;;;;;;;;;;;17.24;65.57;100399.84;5074824;28;20029;-77
2023/10/07 02:01:29;;;;;;;;;;;;;;;17.24;65.85;100397.16;5073543;28;19986;-77
2023/10/07 02:03:57;;;;;;;;;;;;;;;17.22;66.89;100393.06;5074608;28;20392;-77
2023/10/07 02:06:22;;;;;;;;;;;;;;;17.19;66.30;100388.13;5074597;28;20320;-77
2023/10/07 02:08:48;;;;;;;;;;;;;;;17.16;67.27;100402.69;5074674;28;19919;-76
2023/10/07 02:11:17;;;;;;;;;;;;;;;17.13;66.26;100395.06;5074568;28;20011;-77
2023/10/07 02:13:45;;;;;;;;;;;;;;;17.11;65.88;100389.13;5074652;28;19916;-77
2023/10/07 02:16:11;;;;;;;;;;;;;;;17.09;66.02;100389.31;5074437;28;19912;-77
2023/10/07 02:18:36;;;;;;;;;;;;;;;17.05;66.72;100393.38;5074398;28;19936;-76
2023/10/07 02:21:08;;;;;;;;;;;;;;;17.03;66.15;100389.25;5074450;28;20389;-77
2023/10/07 02:23:45;;;;;;;;;;;;;;;17.04;65.83;100391.72;5074349;28;19913;-77
2023/10/07 02:26:15;;;;;;;;;;;;;;;17.07;65.58;100398.50;5074139;28;20025;-77
2023/10/07 02:28:42;;;;;;;;;;;;;;;17.01;66.49;100394.78;5074217;28;19919;-77
2023/10/07 02:31:08;;;;;;;;;;;;;;;16.94;66.08;100390.44;5074311;28;19912;-77
2023/10/07 02:33:41;;;;;;;;;;;;;;;16.89;67.26;100396.38;5074174;28;19913;-77
2023/10/07 02:36:10;;;;;;;;;;;;;;;16.87;67.00;100397.59;5074068;28;20312;-76
2023/10/07 02:38:37;;;;;;;;;;;;;;;16.87;66.25;100394.94;5073970;28;19926;-77
2023/10/07 02:41:15;;;;;;;;;;;;;;;16.89;66.26;100392.88;5074039;28;20350;-77
2023/10/07 02:43:43;;;;;;;;;;;;;;;16.94;65.46;100385.94;5073923;28;20376;-76
2023/10/07 02:46:08;;;;;;;;;;;;;;;16.94;66.16;100393.94;5073941;28;19920;-77
2023/10/07 02:48:38;;;;;;;;;;;;;;;16.89;66.43;100393.72;5074158;28;20292;-76
2023/10/07 02:51:09;;;;;;;;;;;;;;;16.86;66.19;100395.94;5073865;28;19952;-77
2023/10/07 02:53:35;;;;;;;;;;;;;;;16.79;67.12;100393.25;5073914;28;19920;-78
2023/10/07 02:56:03;;;;;;;;;;;;;;;16.76;66.77;100393.66;5073923;28;19916;-77
2023/10/07 02:58:48;;;;;;;;;;;;;;;16.74;66.68;100385.84;5073678;28;20003;-76
2023/10/07 03:01:17;;;;;;;;;;;;;;;16.75;65.94;100386.66;5071586;28;19912;-77
2023/10/07 03:03:49;;;;;;;;;;;;;;;16.77;66.17;100384.63;5073888;28;19924;-76
2023/10/07 03:06:17;;;;;;;;;;;;;;;16.75;65.74;100382.16;5073353;28;19916;-76
2023/10/07 03:11:12;;;;;;;;;;;;;;;16.69;65.78;100379.47;5073486;28;19955;-76
2023/10/07 03:13:39;;;;;;;;;;;;;;;16.68;66.80;100381.31;5073556;28;19995;-77
2023/10/07 03:19:30;;;;;;;;;;;;;;;16.61;66.25;100387.59;5073249;28;19912;-77
2023/10/07 03:24:10;;;;;;;;;;;;;;;16.59;66.04;100392.28;5073223;28;20311;-76
2023/10/07 03:26:37;;;;;;;;;;;;;;;16.55;66.10;100389.19;5071892;28;19920;-77
2023/10/07 03:29:05;;;;;;;;;;;;;;;16.53;65.17;100388.56;5073171;28;19918;-76
2023/10/07 03:31:35;;;;;;;;;;;;;;;16.48;65.90;100397.16;5073045;28;19912;-77
2023/10/07 03:34:01;;;;;;;;;;;;;;;16.47;65.14;100394.69;5071733;28;19966;-76
2023/10/07 03:36:44;;;;;;;;;;;;;;;16.45;66.23;100397.53;5073051;28;20359;-77
2023/10/07 03:41:48;;;;;;;;;;;;;;;16.39;66.21;100389.50;5073025;28;19965;-76
2023/10/07 03:44:17;;;;;;;;;;;;;;;16.39;65.86;100392.19;5073046;28;19916;-74
2023/10/07 03:46:44;;;;;;;;;;;;;;;16.39;66.45;100401.00;5071448;28;19920;-76
2023/10/07 03:49:10;;;;;;;;;;;;;;;16.39;65.69;100401.00;5072774;28;19912;-76
2023/10/07 03:51:35;;;;;;;;;;;;;;;16.34;66.57;100403.38;5072901;28;20359;-76
2023/10/07 03:54:09;;;;;;;;;;;;;;;16.31;66.56;100401.09;5072810;28;20492;-76
2023/10/07 03:56:35;;;;;;;;;;;;;;;16.30;64.76;100404.78;5072708;28;19919;-76
2023/10/07 03:59:00;;;;;;;;;;;;;;;16.24;66.03;100410.91;5072613;28;19913;-77
2023/10/07 04:01:27;;;;;;;;;;;;;;;16.15;65.95;100409.41;5072795;28;19991;-76
2023/10/07 04:03:59;;;;;;;;;;;;;;;16.15;66.30;100409.41;5072827;28;19920;-76
2023/10/07 04:06:30;;;;;;;;;;;;;;;16.13;65.76;100424.75;5071476;28;19963;-76
2023/10/07 04:08:58;;;;;;;;;;;;;;;16.10;65.56;100427.81;5072902;28;20419;-76
2023/10/07 04:11:28;;;;;;;;;;;;;;;16.04;66.44;100424.06;5072717;28;20312;-77
2023/10/07 04:13:53;;;;;;;;;;;;;;;16.03;65.59;100432.25;5072596;28;19917;-76
2023/10/07 04:16:25;;;;;;;;;;;;;;;16.01;65.66;100431.63;5072277;28;19912;-77
2023/10/07 04:18:50;;;;;;;;;;;;;;;15.99;65.62;100426.47;5071965;28;19912;-76
2023/10/07 04:21:15;;;;;;;;;;;;;;;15.96;65.53;100434.03;5072119;28;20312;-76
2023/10/07 04:23:44;;;;;;;;;;;;;;;15.91;66.42;100431.94;5070860;28;19912;-76
2023/10/07 04:26:10;;;;;;;;;;;;;;;15.95;65.62;100429.72;5070928;28;19935;-76
2023/10/07 04:28:35;;;;;;;;;;;;;;;15.96;66.33;100439.34;5072126;28;20405;-76
2023/10/07 04:31:09;;;;;;;;;;;;;;;15.94;64.73;100425.41;5072135;28;19919;-77
2023/10/07 04:33:40;;;;;;;;;;;;;;;15.89;66.80;100434.78;5072153;28;19920;-77
2023/10/07 04:36:10;;;;;;;;;;;;;;;15.91;65.72;100431.94;5072026;28;19913;-77
2023/10/07 04:38:56;;;;;;;;;;;;;;;15.91;65.41;100437.25;5072177;28;19916;-76
2023/10/07 04:43:59;;;;;;;;;;;;;;;15.90;66.10;100446.25;5072115;28;20949;-76
2023/10/07 04:46:28;;;;;;;;;;;;;;;15.85;66.02;100443.34;5071688;28;19916;-77
2023/10/07 04:48:57;;;;;;;;;;;;;;;15.84;66.23;100439.88;5071980;28;19913;-78
2023/10/07 04:54:11;;;;;;;;;;;;;;;15.89;66.05;100440.13;5066172;28;19912;-77
2023/10/07 04:56:36;;;;;;;;;;;;;;;15.86;66.66;100437.84;5070715;28;19909;-75
2023/10/07 04:59:06;;;;;;;;;;;;;;;15.83;66.51;100442.72;5071596;28;19986;-77
2023/10/07 05:01:34;;;;;;;;;;;;;;;15.85;66.29;100449.50;5071719;28;19912;-78
2023/10/07 05:04:04;;;;;;;;;;;;;;;15.86;65.21;100448.50;5071563;28;19920;-77
2023/10/07 05:06:30;;;;;;;;;;;;;;;15.83;66.24;100456.03;5071649;28;19916;-76
2023/10/07 05:08:55;;;;;;;;;;;;;;;15.84;67.00;100455.84;5071764;28;20315;-77
2023/10/07 05:11:21;;;;;;;;;;;;;;;15.87;66.32;100455.47;5071620;28;19913;-77
2023/10/07 05:13:46;;;;;;;;;;;;;;;15.89;66.47;100456.09;5071511;28;19913;-77
2023/10/07 05:16:15;;;;;;;;;;;;;;;15.92;66.00;100462.06;5071696;28;19916;-77
2023/10/07 05:18:41;;;;;;;;;;;;;;;15.96;65.91;100456.16;5071611;28;20440;-76
2023/10/07 05:21:07;;;;;;;;;;;;;;;15.99;65.65;100450.44;5070190;28;19939;-76
2023/10/07 05:23:33;;;;;;;;;;;;;;;15.96;66.50;100450.00;5073358;28;19916;-76
2023/10/07 05:26:03;;;;;;;;;;;;;;;16.05;65.80;100449.69;5075387;28;19913;-76
2023/10/07 05:28:30;;;;;;;;;;;;;;;16.12;66.26;100449.75;5075384;28;19917;-76
2023/10/07 05:30:57;;;;;;;;;;;;;;;16.13;66.54;100454.88;5075291;28;19934;-76
2023/10/07 05:33:26;;;;;;;;;;;;;;;16.12;66.71;100463.88;5075341;28;20419;-77
2023/10/07 05:36:08;;;;;;;;;;;;;;;16.14;65.48;100464.53;5075221;28;19978;-77
2023/10/07 05:38:35;;;;;;;;;;;;;;;16.18;65.70;100464.97;5075221;28;19912;-77
2023/10/07 05:41:01;;;;;;;;;;;;;;;16.23;66.29;100467.06;5075320;28;19912;-76
2023/10/07 05:43:28;;;;;;;;;;;;;;;16.28;66.02;100468.13;5075229;28;19919;-76
2023/10/07 05:45:54;;;;;;;;;;;;;;;16.34;66.08;100464.69;5075285;28;19912;-76
2023/10/07 05:48:20;;;;;;;;;;;;;;;16.39;65.93;100470.28;5075369;28;20393;-76
2023/10/07 05:50:46;;;;;;;;;;;;;;;16.40;65.83;100463.13;5074901;28;19923;-76
2023/10/07 05:53:11;;;;;;;;;;;;;;;16.46;65.59;100471.16;5073390;28;20301;-76
2023/10/07 05:55:36;;;;;;;;;;;;;;;16.52;65.42;100475.72;5073362;28;20062;-75
2023/10/07 05:58:05;;;;;;;;;;;;;;;16.61;66.18;100479.06;5074879;28;19935;-76
2023/10/07 06:00:35;;;;;;;;;;;;;;;16.62;66.25;100478.03;5073504;28;19916;-76
2023/10/07 06:03:05;;;;;;;;;;;;;;;16.68;67.03;100477.31;5074677;28;19919;-77
2023/10/07 06:05:31;;;;;;;;;;;;;;;16.71;66.58;100476.09;5074632;28;20384;-77
2023/10/07 06:07:57;;;;;;;;;;;;;;;16.72;66.68;100475.88;5073518;28;19923;-76
2023/10/07 06:10:24;;;;;;;;;;;;;;;16.74;67.09;100473.03;5074884;28;19961;-76
2023/10/07 06:12:49;;;;;;;;;;;;;;;16.78;66.03;100471.63;5074883;28;19919;-75
2023/10/07 06:15:16;;;;;;;;;;;;;;;16.78;68.02;100476.94;5074900;28;19908;-77
2023/10/07 06:17:42;;;;;;;;;;;;;;;16.79;68.06;100478.59;5074332;28;20373;-77
2023/10/07 06:20:14;;;;;;;;;;;;;;;16.84;68.37;100477.00;5074395;28;19919;-77
2023/10/07 06:22:45;;;;;;;;;;;;;;;16.94;67.65;100473.97;5074275;28;19996;-77
2023/10/07 06:25:12;;;;;;;;;;;;;;;17.04;68.74;100478.94;5072966;28;20392;-75
2023/10/07 06:27:38;;;;;;;;;;;;;;;17.16;67.32;100461.38;5074369;28;19917;-76
2023/10/07 06:30:04;;;;;;;;;;;;;;;17.25;66.41;100459.38;5074321;28;19919;-78
2023/10/07 06:32:43;;;;;;;;;;;;;;;17.32;66.84;100462.88;5074138;28;19913;-77
2023/10/07 06:35:13;;;;;;;;;;;;;;;17.37;68.14;100471.13;5074013;28;19913;-76
2023/10/07 06:37:39;;;;;;;;;;;;;;;17.44;67.24;100472.78;5074111;28;19918;-77
2023/10/07 06:40:13;;;;;;;;;;;;;;;17.54;66.69;100475.09;5074232;28;20010;-76
2023/10/07 06:42:40;;;;;;;;;;;;;;;17.67;66.99;100471.66;5074164;28;20359;-76
2023/10/07 06:45:08;;;;;;;;;;;;;;;17.77;69.21;100480.09;5072851;28;19919;-74
2023/10/07 06:47:34;;;;;;;;;;;;;;;17.80;66.09;100479.69;5073935;28;19917;-76
2023/10/07 06:50:02;;;;;;;;;;;;;;;17.91;66.64;100481.81;5074041;28;19919;-76
2023/10/07 06:52:28;;;;;;;;;;;;;;;18.02;66.27;100477.72;5072644;28;20304;-76
2023/10/07 06:54:54;;;;;;;;;;;;;;;18.10;67.96;100482.88;5073784;28;19960;-77
2023/10/07 06:57:19;;;;;;;;;;;;;;;18.19;65.99;100475.47;5073696;28;19912;-76
2023/10/07 06:59:45;;;;;;;;;;;;;;;18.28;66.41;100472.38;5063957;28;19920;-76
2023/10/07 07:02:17;;;;;;;;;;;;;;;18.35;64.73;100473.22;5053975;28;19967;-77
2023/10/07 07:04:42;;;;;;;;;;;;;;;18.38;63.94;100464.78;5053196;28;19921;-77
2023/10/07 07:07:10;;;;;;;;;;;;;;;18.43;64.01;100461.47;5053579;28;20016;-77
2023/10/07 07:09:41;;;;;;;;;;;;;;;18.49;63.62;100459.84;5053516;28;20008;-76
2023/10/07 07:12:09;;;;;;;;;;;;;;;18.55;64.52;100465.19;5053488;28;19913;-77
2023/10/07 07:14:34;;;;;;;;;;;;;;;18.64;63.61;100455.97;5052209;28;20309;-76
2023/10/07 07:22:33;;;;;;;;;;;;;;;18.84;63.10;100444.41;5053827;28;19935;-77
2023/10/07 07:25:03;;;;;;;;;;;;;;;18.89;63.35;100442.75;5053657;28;19913;-73
2023/10/07 07:27:33;;;;;;;;;;;;;;;18.96;63.97;100448.88;5053154;28;19917;-76
2023/10/07 07:30:01;;;;;;;;;;;;;;;19.04;62.99;100443.31;5053050;28;19912;-76
2023/10/07 07:32:28;;;;;;;;;;;;;;;19.11;62.87;100443.28;5053053;28;19956;-76
2023/10/07 07:34:56;;;;;;;;;;;;;;;19.15;62.63;100444.50;5053160;28;19916;-76
2023/10/07 07:37:22;;;;;;;;;;;;;;;19.21;62.33;100437.47;5053170;28;19944;-76
2023/10/07 07:39:48;;;;;;;;;;;;;;;19.24;63.11;100429.03;5053017;28;19951;-75
2023/10/07 07:42:22;;;;;;;;;;;;;;;19.32;62.52;100434.13;5051381;28;19917;-76
2023/10/07 07:44:56;;;;;;;;;;;;;;;19.36;62.85;100432.69;5052593;28;19913;-77
2023/10/07 07:47:22;;;;;;;;;;;;;;;19.40;62.42;100436.59;5052355;28;20386;-76
2023/10/07 07:49:48;;;;;;;;;;;;;;;19.45;62.62;100431.41;5053002;28;19919;-76
2023/10/07 07:52:15;;;;;;;;;;;;;;;19.49;61.99;100432.63;5051597;28;19913;-77
2023/10/07 07:54:41;;;;;;;;;;;;;;;19.55;61.62;100439.84;5052281;28;20021;-74
2023/10/07 07:57:08;;;;;;;;;;;;;;;19.56;61.71;100438.81;5052498;28;20353;-77
2023/10/07 07:59:33;;;;;;;;;;;;;;;19.63;61.71;100441.44;5051119;28;19968;-77
2023/10/07 08:02:11;;;;;;;;;;;;;;;19.73;61.40;100440.97;5052570;28;19962;-77
2023/10/07 08:04:47;;;;;;;;;;;;;;;19.82;61.33;100447.72;5052270;28;20401;-76
2023/10/07 08:07:27;;;;;;;;;;;;;;;19.90;61.18;100439.41;5084607;28;19916;-76
2023/10/07 08:09:53;;;;;;;;;;;;;;;19.99;61.15;100446.16;5051072;28;20309;-76
2023/10/07 08:12:20;;;;;;;;;;;;;;;20.06;59.84;100438.06;5052351;28;19962;-76
2023/10/07 08:14:46;;;;;;;;;;;;;;;20.08;60.25;100439.50;5052236;28;20007;-75
2023/10/07 08:17:15;;;;;;;;;;;;;;;20.14;59.55;100444.00;5050781;28;20392;-75
2023/10/07 08:19:40;;;;;;;;;;;;;;;20.18;59.38;100431.78;5050650;28;19913;-75
2023/10/07 08:22:13;;;;;;;;;;;;;;;20.30;59.33;100438.09;5052262;28;19920;-75
2023/10/07 08:24:39;;;;;;;;;;;;;;;20.41;59.21;100430.38;5052320;28;19955;-75
2023/10/07 08:27:09;;;;;;;;;;;;;;;20.49;58.93;100430.09;5050764;28;19917;-77
2023/10/07 08:29:45;;;;;;;;;;;;;;;20.53;58.21;100426.75;5052099;28;19917;-77
2023/10/07 08:32:29;;;;;;;;;;;;;;;20.60;57.85;100426.69;5051953;28;20423;-74
2023/10/07 08:34:59;;;;;;;;;;;;;;;20.70;58.02;100427.00;5050657;28;19942;-77
2023/10/07 08:37:24;;;;;;;;;;;;;;;20.75;57.39;100423.66;5051793;28;19913;-76
2023/10/07 08:39:54;;;;;;;;;;;;;;;20.82;57.13;100424.44;5051994;28;20054;-76
2023/10/07 08:42:26;;;;;;;;;;;;;;;20.86;56.85;100420.25;5052240;28;19913;-77
2023/10/07 08:44:58;;;;;;;;;;;;;;;20.87;56.96;100422.72;5051996;28;19995;-74
2023/10/07 08:47:24;;;;;;;;;;;;;;;20.93;56.85;100416.44;5052048;28;19917;-74
2023/10/07 08:49:52;;;;;;;;;;;;;;;20.99;56.79;100416.59;5051963;28;19919;-74
2023/10/07 08:52:19;;;;;;;;;;;;;;;21.05;56.68;100407.63;5050494;28;19978;-76
2023/10/07 08:54:44;;;;;;;;;;;;;;;21.12;56.11;100403.81;5051571;28;20348;-76
2023/10/07 08:57:18;;;;;;;;;;;;;;;21.23;56.00;100404.94;5051823;28;19913;-77
2023/10/07 08:59:49;;;;;;;;;;;;;;;21.38;55.76;100401.84;5055860;28;19916;-76
2023/10/07 09:02:26;;;;;;;;;;;;;;;21.52;54.89;100398.75;5055232;28;19917;-76
2023/10/07 09:04:51;;;;;;;;;;;;;;;21.66;54.77;100394.03;5054898;28;20039;-76
2023/10/07 09:07:20;;;;;;;;;;;;;;;21.77;54.42;100395.94;5057475;28;19920;-77
2023/10/07 09:09:46;;;;;;;;;;;;;;;21.85;54.03;100398.28;5055425;28;19916;-78
2023/10/07 09:12:14;;;;;;;;;;;;;;;21.82;53.28;100390.69;5058401;28;19943;-77
2023/10/07 09:14:45;;;;;;;;;;;;;;;21.89;53.82;100387.88;5058401;28;19920;-75
2023/10/07 09:17:11;;;;;;;;;;;;;;;22.03;53.65;100386.66;5057546;28;19951;-76
2023/10/07 09:19:36;;;;;;;;;;;;;;;22.18;52.62;100378.94;5055822;28;19967;-76
2023/10/07 09:22:10;;;;;;;;;;;;;;;22.19;51.82;100377.06;5055655;28;19912;-77
2023/10/07 09:24:41;;;;;;;;;;;;;;;22.26;52.14;100372.38;5054446;28;19912;-75
2023/10/07 09:27:10;;;;;;;;;;;;;;;22.40;51.82;100363.06;5055190;28;19917;-75
2023/10/07 09:29:37;;;;;;;;;;;;;;;22.55;51.07;100369.81;5055300;28;19928;-75
2023/10/07 09:32:07;;;;;;;;;;;;;;;22.70;51.49;100370.97;5055220;28;20370;-75
2023/10/07 09:34:47;;;;;;;;;;;;;;;22.81;51.48;100366.63;5055294;28;20361;-74
2023/10/07 09:37:17;;;;;;;;;;;;;;;22.97;50.21;100365.06;5055453;28;19966;-76
2023/10/07 09:39:46;;;;;;;;;;;;;;;23.09;49.05;100355.09;5055720;28;19913;-76
2023/10/07 09:42:26;;;;;;;;;;;;;;;23.08;49.24;100358.84;5055145;28;19912;-77
2023/10/07 09:47:33;;;;;;;;;;;;;;;23.39;48.91;100344.06;5055478;28;20408;-77
2023/10/07 09:49:59;;;;;;;;;;;;;;;23.52;48.03;100354.53;5055119;28;19920;-75
2023/10/07 09:52:29;;;;;;;;;;;;;;;23.68;48.22;100345.69;5056752;28;19919;-74
2023/10/07 09:55:21;;;;;;;;;;;;;;;23.85;47.64;100337.63;5059880;28;19952;-77
2023/10/07 09:57:49;;;;;;;;;;;;;;;23.97;46.32;100332.94;5056756;28;19917;-76
2023/10/07 10:00:43;;;;;;;;;;;;;;;24.08;45.60;100331.22;5055328;28;20297;-75
2023/10/07 10:03:12;;;;;;;;;;;;;;;24.17;46.44;100323.53;5055020;28;20302;-76
2023/10/07 10:05:56;;;;;;;;;;;;;;;24.30;46.06;100323.19;5054680;28;19932;-75
2023/10/07 10:08:37;;;;;;;;;;;;;;;24.37;44.22;100318.44;5054200;28;19924;-76
2023/10/07 10:11:19;;;;;;;;;;;;;;;24.44;45.48;100305.56;5054627;28;20301;-76
2023/10/07 10:13:52;;;;;;;;;;;;;;;24.53;44.13;100305.97;5054366;28;19913;-76
2023/10/07 10:16:28;;;;;;;;;;;;;;;24.68;43.94;100300.75;5054655;28;19917;-76
2023/10/07 10:19:12;;;;;;;;;;;;;;;24.75;43.16;100297.88;5054361;28;19928;-74
2023/10/07 10:21:37;;;;;;;;;;;;;;;24.81;41.79;100288.75;5054517;28;19992;-75
2023/10/07 10:24:02;;;;;;;;;;;;;;;24.94;43.85;100285.66;5054279;28;20357;-75
2023/10/07 10:26:33;;;;;;;;;;;;;;;25.12;43.42;100279.09;5054272;28;19971;-75
2023/10/07 10:29:04;;;;;;;;;;;;;;;25.23;42.66;100270.81;5054188;28;20000;-75
2023/10/07 10:31:33;;;;;;;;;;;;;;;25.28;42.01;100262.78;5054281;28;19917;-75
2023/10/07 10:34:04;;;;;;;;;;;;;;;25.41;41.35;100258.03;5054308;28;20435;-75
2023/10/07 10:36:31;;;;;;;;;;;;;;;25.48;42.19;100256.75;5054336;28;19916;-75
2023/10/07 10:39:00;;;;;;;;;;;;;;;25.53;41.71;100250.56;5054066;28;19917;-77
2023/10/07 10:41:29;;;;;;;;;;;;;;;25.59;40.81;100239.50;5053918;28;19967;-76
2023/10/07 10:44:10;;;;;;;;;;;;;;;25.72;41.24;100246.38;5052521;28;19999;-76
2023/10/07 10:46:46;;;;;;;;;;;;;;;25.81;39.59;100239.41;5053681;28;19916;-76
2023/10/07 10:49:12;;;;;;;;;;;;;;;25.69;40.07;100235.28;5053581;28;19913;-76
2023/10/07 10:51:48;;;;;;;;;;;;;;;25.79;36.96;100233.44;5053760;28;20405;-76
2023/10/07 10:54:17;;;;;;;;;;;;;;;25.89;40.60;100224.56;5053791;28;19959;-76
2023/10/07 10:56:49;;;;;;;;;;;;;;;26.07;37.63;100226.06;5053971;28;19920;-75
2023/10/07 10:59:15;;;;;;;;;;;;;;;26.15;37.38;100220.94;5053837;28;19919;-75
2023/10/07 11:01:44;;;;;;;;;;;;;;;26.23;39.73;100216.91;5053716;28;20003;-75
2023/10/07 11:04:12;;;;;;;;;;;;;;;26.22;39.15;100209.88;5053750;28;20467;-76
2023/10/07 11:06:38;;;;;;;;;;;;;;;26.36;40.18;100211.03;5053535;28;19917;-75
2023/10/07 11:09:03;;;;;;;;;;;;;;;26.43;37.92;100203.47;5053539;28;20367;-76
2023/10/07 11:11:29;;;;;;;;;;;;;;;26.55;37.45;100201.34;5053615;28;19920;-76
2023/10/07 11:13:55;;;;;;;;;;;;;;;26.64;38.86;100201.63;5053477;28;19917;-76
2023/10/07 11:16:22;;;;;;;;;;;;;;;26.64;39.75;100190.81;5051968;28;19913;-76
2023/10/07 11:18:48;;;;;;;;;;;;;;;26.61;39.01;100188.63;5053483;28;20378;-75
2023/10/07 11:21:18;;;;;;;;;;;;;;;26.62;38.49;100187.53;5051720;28;20004;-76
2023/10/07 11:23:44;;;;;;;;;;;;;;;26.63;38.02;100182.94;5053275;28;19913;-75
2023/10/07 11:26:09;;;;;;;;;;;;;;;26.55;38.23;100176.97;5053748;28;20305;-76
2023/10/07 11:28:34;;;;;;;;;;;;;;;26.52;38.49;100171.28;5052951;28;19921;-75
2023/10/07 11:31:00;;;;;;;;;;;;;;;26.47;37.61;100171.25;5055088;28;20349;-75
2023/10/07 11:33:25;;;;;;;;;;;;;;;26.42;38.85;100168.53;5071268;28;19924;-75
2023/10/07 11:36:02;;;;;;;;;;;;;;;26.35;37.73;100163.38;5073328;28;20343;-74
2023/10/07 11:38:27;;;;;;;;;;;;;;;26.23;38.73;100168.19;5072175;28;20371;-77
2023/10/07 11:40:53;;;;;;;;;;;;;;;26.13;40.39;100160.03;5072577;28;20015;-76
2023/10/07 11:43:18;;;;;;;;;;;;;;;25.99;38.04;100162.38;5072883;28;19916;-75
2023/10/07 11:45:44;;;;;;;;;;;;;;;25.77;38.66;100154.44;5072661;28;19919;-76
2023/10/07 11:48:09;;;;;;;;;;;;;;;25.62;39.48;100152.44;5072435;28;19964;-76
2023/10/07 11:50:35;;;;;;;;;;;;;;;25.56;40.20;100150.78;5072316;28;19912;-77
2023/10/07 11:53:09;;;;;;;;;;;;;;;25.49;39.32;100149.41;5052536;28;19963;-77
2023/10/07 11:55:35;;;;;;;;;;;;;;;25.34;40.09;100136.59;5052306;28;19963;-76
2023/10/07 11:58:01;;;;;;;;;;;;;;;25.22;40.61;100135.94;5051106;28;20402;-75
2023/10/07 12:00:34;;;;;;;;;;;;;;;25.12;40.21;100142.09;5052348;28;19963;-76
2023/10/07 12:03:00;;;;;;;;;;;;;;;24.98;40.53;100141.72;5051082;28;20012;-76
2023/10/07 12:05:28;;;;;;;;;;;;;;;24.87;40.07;100129.19;5052130;28;19959;-77
2023/10/07 12:07:59;;;;;;;;;;;;;;;24.83;40.44;100130.75;5051390;28;21457;-76
2023/10/07 12:10:25;;;;;;;;;;;;;;;24.78;40.83;100122.63;5055961;28;20319;-76
2023/10/07 12:12:52;;;;;;;;;;;;;;;24.75;40.75;100119.63;5072513;28;19909;-75
2023/10/07 12:15:17;;;;;;;;;;;;;;;24.65;39.60;100120.34;5072099;28;19912;-76
2023/10/07 12:17:46;;;;;;;;;;;;;;;24.56;39.89;100113.78;5070753;28;19966;-78
2023/10/07 12:20:12;;;;;;;;;;;;;;;24.51;41.17;100109.13;5056661;28;20012;-75
2023/10/07 12:22:40;;;;;;;;;;;;;;;24.50;41.49;100106.66;5071993;28;19912;-75
2023/10/07 12:25:07;;;;;;;;;;;;;;;24.48;41.49;100100.72;5071917;28;19966;-75
2023/10/07 12:27:32;;;;;;;;;;;;;;;24.44;41.54;100086.09;5072066;28;19920;-75
2023/10/07 12:29:58;;;;;;;;;;;;;;;24.44;41.19;100086.09;5071964;28;19919;-76
2023/10/07 12:32:24;;;;;;;;;;;;;;;24.40;39.94;100083.09;5072048;28;20308;-77
2023/10/07 12:34:49;;;;;;;;;;;;;;;24.39;40.89;100082.28;5072216;28;19909;-75
2023/10/07 12:37:15;;;;;;;;;;;;;;;24.39;41.29;100086.88;5071912;28;19917;-76
2023/10/07 12:39:40;;;;;;;;;;;;;;;24.38;42.09;100072.56;5072033;28;19913;-76
2023/10/07 12:42:07;;;;;;;;;;;;;;;24.37;41.04;100068.22;5055532;28;20408;-75
2023/10/07 12:44:32;;;;;;;;;;;;;;;24.39;40.34;100070.66;5056978;28;19916;-76
2023/10/07 12:46:57;;;;;;;;;;;;;;;24.35;40.96;100066.84;5064446;28;19986;-76
2023/10/07 12:49:23;;;;;;;;;;;;;;;24.33;40.98;100060.91;5070745;28;19917;-76
2023/10/07 12:51:48;;;;;;;;;;;;;;;24.32;40.83;100053.88;5063495;28;20024;-77
2023/10/07 12:54:13;;;;;;;;;;;;;;;24.31;39.65;100053.06;5059712;28;19916;-76
2023/10/07 12:56:42;;;;;;;;;;;;;;;24.27;39.59;100057.34;5070671;28;19922;-76
2023/10/07 12:59:22;;;;;;;;;;;;;;;24.24;40.58;100048.91;5070241;28;20377;-76
2023/10/07 13:01:50;;;;;;;;;;;;;;;24.23;41.67;100041.88;5068126;28;19916;-76
2023/10/07 13:04:15;;;;;;;;;;;;;;;24.20;40.79;100040.50;5070971;28;20423;-76
2023/10/07 13:06:43;;;;;;;;;;;;;;;24.23;41.28;100033.78;5070574;28;19925;-75
2023/10/07 13:09:16;;;;;;;;;;;;;;;24.25;41.24;100035.16;5071656;28;20336;-76
2023/10/07 13:11:42;;;;;;;;;;;;;;;24.29;40.56;100040.88;5069271;28;19921;-76
2023/10/07 13:14:08;;;;;;;;;;;;;;;24.34;41.14;100043.63;5068216;28;19912;-76